WN66 weather

Cranberry International Seaplane Base
Eagle River, Wisconsin, United States

Public forecast

Using degrees Fahrenheit for public forecast. Weather courtesy of forecast.io.

Closest aviation weather report (METAR) to Cranberry International Seaplane Base

Closest report is Eagle River Union Airport, 9.1 nm (16.8 km) ENE. Retrieved 2019/10/18 15:35 UTC (0 seconds ago):

KEGV 181535Z AUTO 17011G16KT 10SM CLR 07/02 A2994 RMK AO2 T00730021

Closest aviation forecast (TAF) to Cranberry International Seaplane Base

Closest forecast is Rhinelander Oneida County Airport, 13.2 nm (24.5 km) S. Retrieved 2019/10/18 12:36 UTC (3 hours ago):

TAF KRHI 181134Z 1812/1912 15004KT P6SM SCT150 FM181400 17009G22KT P6SM SCT050 FM190100 17008G21KT P6SM SCT200 WS020/20045KT FM190900 18006G17KT P6SM BKN050 WS015/22030KT FM191100 19006G17KT P6SM -SHRA BKN029